Time;durP1;ratioP1;P1;durP2;ratioP2;P2;SDS_P1;SDS_P2;PMS_P1;PMS_P2;Temp;Humidity;BMP_temperature;BMP_pressure;BME280_temperature;BME280_humidity;BME280_pressure;Samples;Min_cycle;Max_cycle;Signal;HPM_P1;HPM_P2
2022/04/04 00:00:10;;;;;;;12.02;7.18;;;-0.80;74.30;;;;;;4976180;28;20415;-74
2022/04/04 00:02:36;;;;;;;12.45;8.02;;;-0.90;74.50;;;;;;4976346;28;20023;-73
2022/04/04 00:05:03;;;;;;;9.93;6.90;;;-1.00;74.70;;;;;;4976222;28;20127;-74
2022/04/04 00:07:28;;;;;;;13.32;7.38;;;-1.00;75.10;;;;;;4976152;28;20028;-74
2022/04/04 00:09:54;;;;;;;14.25;6.97;;;-1.20;75.20;;;;;;4975611;28;20035;-73
2022/04/04 00:12:20;;;;;;;14.07;6.85;;;-1.30;75.60;;;;;;4975223;28;20031;-74
2022/04/04 00:14:47;;;;;;;11.82;7.60;;;-1.30;75.70;;;;;;4975333;28;20050;-75
2022/04/04 00:17:12;;;;;;;14.80;7.85;;;-1.40;75.70;;;;;;4974998;28;20074;-74
2022/04/04 00:19:39;;;;;;;12.55;7.45;;;-1.40;76.10;;;;;;4975089;28;20475;-74
2022/04/04 00:22:05;;;;;;;9.77;6.50;;;-1.40;75.90;;;;;;4975239;28;20133;-77
2022/04/04 00:24:30;;;;;;;9.30;6.18;;;-1.40;75.60;;;;;;4975130;28;20023;-73
2022/04/04 00:26:56;;;;;;;12.73;6.47;;;-1.40;75.40;;;;;;4975174;28;20019;-74
2022/04/04 00:29:22;;;;;;;12.25;6.10;;;-1.30;74.90;;;;;;4975058;28;20019;-73
2022/04/04 00:31:47;;;;;;;10.27;5.93;;;-1.40;74.60;;;;;;4975093;28;20027;-76
2022/04/04 00:34:13;;;;;;;14.55;7.63;;;-1.40;74.50;;;;;;4974917;28;20018;-74
2022/04/04 00:36:40;;;;;;;10.13;7.00;;;-1.50;74.60;;;;;;4974993;28;20027;-73
2022/04/04 00:39:06;;;;;;;12.80;6.88;;;-1.50;74.90;;;;;;4974768;28;20027;-73
2022/04/04 00:41:31;;;;;;;14.18;7.65;;;-1.50;75.10;;;;;;4974754;28;20376;-74
2022/04/04 00:43:57;;;;;;;13.80;7.50;;;-1.70;75.10;;;;;;4974086;28;20062;-74
2022/04/04 00:46:22;;;;;;;13.52;7.80;;;-1.80;75.50;;;;;;4974712;28;20034;-76
2022/04/04 00:48:48;;;;;;;11.75;7.65;;;-2.00;76.00;;;;;;4974707;28;20149;-73
2022/04/04 00:51:14;;;;;;;14.77;8.90;;;-2.10;76.70;;;;;;4974579;28;20412;-74
2022/04/04 00:53:40;;;;;;;13.77;8.55;;;-2.20;77.00;;;;;;4974315;28;20023;-73
2022/04/04 00:56:08;;;;;;;12.75;7.88;;;-2.30;77.00;;;;;;4974484;28;20026;-73
2022/04/04 00:58:37;;;;;;;13.65;8.15;;;-2.30;77.10;;;;;;4974483;28;20468;-73
2022/04/04 01:01:04;;;;;;;13.00;8.32;;;-2.40;77.20;;;;;;4974222;28;20035;-73
2022/04/04 01:03:30;;;;;;;13.88;8.32;;;-2.40;77.50;;;;;;4974246;28;20024;-73
2022/04/04 01:05:57;;;;;;;13.88;8.10;;;-2.40;77.40;;;;;;4974353;28;20487;-73
2022/04/04 01:08:24;;;;;;;15.57;7.53;;;-2.40;77.20;;;;;;4974361;28;20019;-73
2022/04/04 01:10:50;;;;;;;13.95;8.00;;;-2.40;77.30;;;;;;4974183;28;20038;-74
2022/04/04 01:13:16;;;;;;;13.52;8.30;;;-2.40;77.30;;;;;;4974205;28;20490;-73
2022/04/04 01:15:41;;;;;;;13.20;8.25;;;-2.50;77.50;;;;;;4974038;28;20026;-74
2022/04/04 01:18:08;;;;;;;14.65;8.85;;;-2.50;77.60;;;;;;4974077;28;20480;-73
2022/04/04 01:20:35;;;;;;;18.30;9.27;;;-2.50;77.60;;;;;;4974025;28;20345;-73
2022/04/04 01:23:00;;;;;;;16.00;8.48;;;-2.60;77.50;;;;;;4974033;28;20023;-79
2022/04/04 01:25:28;;;;;;;14.45;8.13;;;-2.70;77.70;;;;;;4974128;28;20022;-77
2022/04/04 01:27:55;;;;;;;14.80;8.38;;;-2.70;77.70;;;;;;4974010;28;20058;-74
2022/04/04 01:30:22;;;;;;;15.85;8.63;;;-2.70;77.40;;;;;;4974090;28;20019;-78
2022/04/04 01:32:49;;;;;;;14.43;8.25;;;-2.80;77.60;;;;;;4974031;28;20031;-79
2022/04/04 01:35:18;;;;;;;14.65;8.80;;;-2.90;78.00;;;;;;4973882;28;20446;-79
2022/04/04 01:37:44;;;;;;;15.57;8.45;;;-2.90;78.40;;;;;;4973924;28;20074;-79
2022/04/04 01:40:10;;;;;;;13.38;8.48;;;-2.90;78.70;;;;;;4973734;28;20031;-77
2022/04/04 01:42:37;;;;;;;11.30;7.30;;;-2.80;78.40;;;;;;4974096;28;20053;-80
2022/04/04 01:45:04;;;;;;;13.02;8.23;;;-2.80;78.10;;;;;;4972463;28;20080;-79
2022/04/04 01:47:30;;;;;;;15.57;8.57;;;-2.80;77.90;;;;;;4973741;28;20061;-78
2022/04/04 01:49:56;;;;;;;11.82;7.57;;;-2.80;77.80;;;;;;4974064;28;20059;-78
2022/04/04 01:52:21;;;;;;;15.15;8.43;;;-2.90;77.80;;;;;;4975264;28;20081;-79
2022/04/04 01:54:47;;;;;;;12.70;7.60;;;-2.90;77.90;;;;;;4975205;28;20039;-79
2022/04/04 01:57:12;;;;;;;13.63;8.27;;;-3.00;78.00;;;;;;4975102;28;20023;-79
2022/04/04 01:59:38;;;;;;;14.50;7.80;;;-3.00;78.10;;;;;;4973848;28;20062;-80
2022/04/04 02:02:04;;;;;;;14.10;7.97;;;-2.90;78.20;;;;;;4973623;28;20031;-80
2022/04/04 02:04:29;;;;;;;14.13;8.05;;;-2.80;78.20;;;;;;4956285;28;20082;-80
2022/04/04 02:06:55;;;;;;;12.93;8.50;;;-2.80;77.90;;;;;;4956350;28;20410;-80
2022/04/04 02:09:20;;;;;;;15.05;8.25;;;-2.80;77.60;;;;;;4973715;28;20442;-80
2022/04/04 02:11:47;;;;;;;15.60;7.90;;;-2.70;77.40;;;;;;4973625;28;20031;-80
2022/04/04 02:14:14;;;;;;;13.32;8.65;;;-2.70;77.10;;;;;;4973602;28;20022;-76
2022/04/04 02:16:39;;;;;;;14.27;8.18;;;-2.80;76.70;;;;;;4973314;28;20051;-77
2022/04/04 02:19:05;;;;;;;15.70;8.63;;;-2.90;76.80;;;;;;4973477;28;20030;-81
2022/04/04 02:21:30;;;;;;;13.85;8.32;;;-3.00;76.70;;;;;;4973307;28;20085;-77
2022/04/04 02:23:56;;;;;;;13.13;8.35;;;-3.10;76.90;;;;;;4973533;28;20106;-80
2022/04/04 02:26:21;;;;;;;17.23;8.27;;;-3.00;77.00;;;;;;4973516;28;20034;-79
2022/04/04 02:28:47;;;;;;;18.92;8.80;;;-3.00;76.50;;;;;;4956240;28;20026;-80
2022/04/04 02:31:12;;;;;;;16.00;8.57;;;-3.10;76.50;;;;;;4955960;28;20040;-79
2022/04/04 02:33:38;;;;;;;15.02;8.70;;;-3.10;76.60;;;;;;4973427;28;20039;-79
2022/04/04 02:36:04;;;;;;;13.95;8.45;;;-3.20;76.60;;;;;;4973505;28;20083;-80
2022/04/04 02:38:30;;;;;;;15.88;9.02;;;-3.10;76.70;;;;;;4973685;28;20023;-79
2022/04/04 02:40:57;;;;;;;15.68;8.52;;;-3.10;76.50;;;;;;4973814;28;20089;-80
2022/04/04 02:43:23;;;;;;;14.63;8.68;;;-3.10;76.70;;;;;;4973868;28;20027;-80
2022/04/04 02:45:49;;;;;;;15.13;8.60;;;-3.10;76.80;;;;;;4974027;28;20359;-79
2022/04/04 02:48:17;;;;;;;17.42;9.00;;;-3.20;76.70;;;;;;4973844;28;20031;-79
2022/04/04 02:50:44;;;;;;;15.23;9.18;;;-3.30;77.10;;;;;;4956289;28;20027;-80
2022/04/04 02:53:11;;;;;;;16.42;9.13;;;-3.40;77.30;;;;;;4973832;28;20397;-79
2022/04/04 02:58:21;;;;;;;16.05;8.93;;;-3.40;77.40;;;;;;4973687;28;20180;-73
2022/04/04 03:00:46;;;;;;;18.05;9.15;;;-3.50;77.80;;;;;;4973541;28;20122;-73
2022/04/04 03:03:12;;;;;;;17.38;9.38;;;-3.40;78.00;;;;;;4973540;28;20036;-73
2022/04/04 03:05:38;;;;;;;17.52;9.38;;;-3.50;77.90;;;;;;4973519;28;20034;-72
2022/04/04 03:08:04;;;;;;;15.85;9.35;;;-3.50;78.10;;;;;;4976112;28;20026;-73
2022/04/04 03:10:31;;;;;;;18.40;9.82;;;-3.60;78.30;;;;;;4977704;28;20031;-72
2022/04/04 03:12:59;;;;;;;16.67;9.65;;;-3.50;78.10;;;;;;4977130;28;20038;-72
2022/04/04 03:15:25;;;;;;;20.92;8.85;;;-3.60;77.70;;;;;;4977190;28;20026;-72
2022/04/04 03:17:54;;;;;;;16.88;9.80;;;-3.60;78.10;;;;;;4976753;28;20051;-72
2022/04/04 03:20:23;;;;;;;20.00;9.90;;;-3.60;78.50;;;;;;4976879;28;20386;-72
2022/04/04 03:22:51;;;;;;;19.38;10.00;;;-3.70;78.40;;;;;;4976833;28;20382;-72
2022/04/04 03:25:17;;;;;;;16.13;9.38;;;-3.60;78.50;;;;;;4976859;28;20497;-72
2022/04/04 03:27:44;;;;;;;16.60;10.10;;;-3.70;78.20;;;;;;4976740;28;20027;-72
2022/04/04 03:30:15;;;;;;;15.70;9.07;;;-3.60;77.80;;;;;;4959353;28;20446;-72
2022/04/04 03:32:41;;;;;;;16.83;9.38;;;-3.60;77.60;;;;;;4976702;28;20085;-74
2022/04/04 03:35:07;;;;;;;17.95;9.50;;;-3.60;77.50;;;;;;4959414;28;20523;-73
2022/04/04 03:37:37;;;;;;;16.48;9.98;;;-3.60;77.40;;;;;;4976615;28;20172;-72
2022/04/04 03:40:04;;;;;;;17.40;9.18;;;-3.70;77.20;;;;;;4976520;28;20035;-72
2022/04/04 03:42:30;;;;;;;17.25;9.25;;;-3.80;77.10;;;;;;4976325;28;20077;-72
2022/04/04 03:44:55;;;;;;;21.20;9.68;;;-3.80;77.10;;;;;;4976286;28;20499;-73
2022/04/04 03:47:22;;;;;;;15.27;9.52;;;-3.80;77.00;;;;;;4976311;28;20022;-73
2022/04/04 03:49:47;;;;;;;15.43;9.38;;;-3.90;77.20;;;;;;4976285;28;20066;-72
2022/04/04 03:52:14;;;;;;;24.15;10.38;;;-3.80;77.60;;;;;;4976088;28;20046;-72
2022/04/04 03:54:40;;;;;;;17.77;9.98;;;-3.80;77.50;;;;;;4976440;28;20034;-72
2022/04/04 03:57:06;;;;;;;16.75;9.57;;;-3.80;77.60;;;;;;4976035;28;20030;-73
2022/04/04 03:59:31;;;;;;;19.65;10.35;;;-3.80;77.60;;;;;;4976003;28;20529;-72
2022/04/04 04:01:57;;;;;;;21.90;11.18;;;-3.80;77.40;;;;;;4976251;28;20094;-72
2022/04/04 04:04:22;;;;;;;18.67;10.50;;;-3.70;77.30;;;;;;4975899;28;20031;-72
2022/04/04 04:06:51;;;;;;;20.33;9.90;;;-3.80;77.40;;;;;;4978684;28;20038;-72
2022/04/04 04:09:17;;;;;;;21.27;9.60;;;-3.70;77.40;;;;;;4976242;28;20034;-72
2022/04/04 04:11:42;;;;;;;17.63;10.27;;;-3.80;77.40;;;;;;4975976;28;20027;-73
2022/04/04 04:14:08;;;;;;;19.92;9.55;;;-3.80;77.60;;;;;;4975939;28;20327;-73
2022/04/04 04:16:34;;;;;;;15.93;9.75;;;-3.90;77.60;;;;;;4975945;28;20105;-73
2022/04/04 04:18:59;;;;;;;17.98;9.60;;;-3.90;77.60;;;;;;4974637;28;20031;-73
2022/04/04 04:21:25;;;;;;;19.77;10.13;;;-4.00;77.70;;;;;;4975732;28;20045;-73
2022/04/04 04:23:51;;;;;;;17.95;10.82;;;-4.00;77.50;;;;;;4975753;28;20061;-73
2022/04/04 04:26:17;;;;;;;18.70;10.15;;;-4.00;77.50;;;;;;4975681;28;20058;-72
2022/04/04 04:28:45;;;;;;;19.85;10.00;;;-4.10;78.50;;;;;;4975690;28;20472;-73
2022/04/04 04:31:11;;;;;;;15.73;9.57;;;-4.00;77.70;;;;;;4975393;28;20039;-73
2022/04/04 04:33:37;;;;;;;23.45;11.73;;;-4.00;77.60;;;;;;4975325;28;20030;-73
2022/04/04 04:36:03;;;;;;;20.85;10.38;;;-4.00;77.40;;;;;;4975396;28;20183;-72
2022/04/04 04:38:30;;;;;;;19.85;10.48;;;-4.00;77.50;;;;;;4975311;28;20025;-73
2022/04/04 04:40:56;;;;;;;19.63;10.18;;;-4.00;77.50;;;;;;4974861;28;20084;-72
2022/04/04 04:43:21;;;;;;;20.95;10.60;;;-4.00;77.50;;;;;;4975298;28;20110;-73
2022/04/04 04:45:47;;;;;;;15.88;9.50;;;-4.00;77.60;;;;;;4975099;28;20058;-72
2022/04/04 04:48:12;;;;;;;18.83;10.02;;;-3.90;77.40;;;;;;4975158;28;20034;-72
2022/04/04 04:50:38;;;;;;;25.60;10.90;;;-3.90;77.20;;;;;;4957914;28;20033;-72
2022/04/04 04:53:03;;;;;;;24.25;11.10;;;-3.90;77.30;;;;;;4975049;28;20442;-71
2022/04/04 04:55:30;;;;;;;18.30;8.75;;;-3.90;77.30;;;;;;4974910;28;20480;-72
2022/04/04 04:57:57;;;;;;;19.08;10.07;;;-3.90;77.00;;;;;;4975006;28;20090;-71
2022/04/04 05:00:25;;;;;;;16.05;9.32;;;-4.00;76.90;;;;;;4974943;28;20069;-72
2022/04/04 05:03:24;;;;;;;21.73;10.95;;;-4.10;77.00;;;;;;4975041;28;20053;-72
2022/04/04 05:05:38;;;;;;;17.90;10.55;;;-4.10;77.00;;;;;;4974744;28;20031;-71
2022/04/04 05:08:05;;;;;;;19.48;11.95;;;-4.00;77.10;;;;;;4974879;28;20039;-72
2022/04/04 05:10:30;;;;;;;25.58;11.82;;;-4.00;76.90;;;;;;4974735;28;20098;-72
2022/04/04 05:12:56;;;;;;;18.08;10.60;;;-3.90;77.40;;;;;;4974629;28;20105;-72
2022/04/04 05:15:23;;;;;;;21.73;11.48;;;-3.90;76.50;;;;;;4974816;28;20459;-72
2022/04/04 05:17:49;;;;;;;22.10;10.57;;;-4.00;76.10;;;;;;4974276;28;20057;-72
2022/04/04 05:20:15;;;;;;;21.63;10.50;;;-3.90;75.90;;;;;;4974467;28;20042;-73
2022/04/04 05:22:40;;;;;;;22.05;11.27;;;-4.00;76.10;;;;;;4974594;28;20027;-72
2022/04/04 05:25:06;;;;;;;20.02;10.07;;;-4.00;76.00;;;;;;4974472;28;20026;-72
2022/04/04 05:27:32;;;;;;;24.35;12.40;;;-4.00;75.80;;;;;;4974354;28;20030;-73
2022/04/04 05:29:57;;;;;;;19.25;10.25;;;-3.90;75.80;;;;;;4973840;28;20487;-72
2022/04/04 05:32:23;;;;;;;19.75;10.60;;;-3.90;75.80;;;;;;4974222;28;20052;-72
2022/04/04 05:34:48;;;;;;;20.63;11.43;;;-3.90;75.80;;;;;;4974407;28;20023;-73
2022/04/04 05:37:14;;;;;;;19.02;10.98;;;-3.90;76.00;;;;;;4974223;28;20027;-77
2022/04/04 05:39:40;;;;;;;22.42;11.63;;;-3.80;75.90;;;;;;4973965;28;20078;-72
2022/04/04 05:42:06;;;;;;;21.05;11.18;;;-3.80;75.90;;;;;;4973871;28;20034;-72
2022/04/04 05:44:32;;;;;;;26.02;12.93;;;-3.90;75.80;;;;;;4974153;28;20506;-72
2022/04/04 05:46:58;;;;;;;24.33;12.70;;;-3.80;75.70;;;;;;4974198;28;20151;-72
2022/04/04 05:49:24;;;;;;;26.13;12.82;;;-3.80;75.50;;;;;;4956741;28;20029;-73
2022/04/04 05:51:50;;;;;;;25.33;12.73;;;-3.80;75.50;;;;;;4974199;28;20031;-72
2022/04/04 05:54:15;;;;;;;24.88;12.00;;;-3.70;75.50;;;;;;4973882;28;20085;-73
2022/04/04 05:56:44;;;;;;;22.08;11.30;;;-3.80;75.60;;;;;;4974434;28;20093;-72
2022/04/04 05:59:12;;;;;;;23.27;10.70;;;-3.70;75.70;;;;;;4974001;28;20030;-72
2022/04/04 06:01:37;;;;;;;19.73;10.88;;;-3.60;75.30;;;;;;4973928;28;20046;-72
2022/04/04 06:04:03;;;;;;;23.88;11.40;;;-3.40;75.30;;;;;;4973896;28;20436;-72
2022/04/04 06:06:29;;;;;;;20.00;10.50;;;-3.30;74.90;;;;;;4973733;28;20088;-72
2022/04/04 06:08:55;;;;;;;22.75;10.93;;;-3.20;74.10;;;;;;4973858;28;20027;-72
2022/04/04 06:11:21;;;;;;;16.40;10.13;;;-3.10;73.80;;;;;;4973669;28;20027;-72
2022/04/04 06:13:46;;;;;;;21.55;10.95;;;-3.10;73.80;;;;;;4973967;28;20023;-72
2022/04/04 06:16:12;;;;;;;19.30;10.60;;;-3.00;73.70;;;;;;4973515;28;20058;-73
2022/04/04 06:18:37;;;;;;;17.33;9.80;;;-2.90;73.60;;;;;;4973944;28;20588;-73
2022/04/04 06:21:03;;;;;;;19.58;10.68;;;-2.80;73.10;;;;;;4973620;28;20071;-72
2022/04/04 06:23:29;;;;;;;16.55;9.32;;;-2.80;72.90;;;;;;4973764;28;20086;-73
2022/04/04 06:25:54;;;;;;;20.13;10.27;;;-2.60;72.90;;;;;;4973762;28;20121;-72
2022/04/04 06:28:20;;;;;;;19.08;9.80;;;-2.50;72.40;;;;;;4973781;28;20472;-72
2022/04/04 06:30:45;;;;;;;18.27;9.15;;;-2.40;72.40;;;;;;4974078;28;20031;-72
2022/04/04 06:33:12;;;;;;;17.95;9.98;;;-2.30;72.20;;;;;;4973179;28;20027;-72
2022/04/04 06:35:37;;;;;;;18.67;10.07;;;-2.20;71.90;;;;;;4973897;28;20039;-73
2022/04/04 06:38:03;;;;;;;23.27;11.00;;;-2.10;71.70;;;;;;4973687;28;20082;-73
2022/04/04 06:40:30;;;;;;;22.27;10.73;;;-1.90;71.30;;;;;;4973530;28;20103;-72
2022/04/04 06:42:57;;;;;;;20.60;9.95;;;-1.80;70.90;;;;;;4976371;28;20429;-73
2022/04/04 06:45:22;;;;;;;17.88;11.05;;;-1.70;70.70;;;;;;4959997;28;20030;-73
2022/04/04 06:47:48;;;;;;;19.63;10.90;;;-1.50;70.30;;;;;;4977439;28;20089;-73
2022/04/04 06:50:14;;;;;;;24.45;11.23;;;-1.40;69.80;;;;;;4977438;28;20054;-74
2022/04/04 06:52:40;;;;;;;20.17;10.88;;;-1.30;69.20;;;;;;4977389;28;20483;-72
2022/04/04 06:55:07;;;;;;;17.75;9.75;;;-1.10;69.00;;;;;;4977372;28;20049;-74
2022/04/04 06:57:33;;;;;;;18.48;10.20;;;-0.90;68.90;;;;;;4977722;28;20060;-73
2022/04/04 06:59:59;;;;;;;20.45;11.13;;;-0.70;68.50;;;;;;4977208;28;20066;-74
2022/04/04 07:02:24;;;;;;;21.52;10.98;;;-0.50;67.50;;;;;;4977209;28;20034;-73
2022/04/04 07:04:50;;;;;;;24.20;10.82;;;-0.50;66.60;;;;;;4976747;28;20110;-74
2022/04/04 07:07:17;;;;;;;25.58;10.43;;;-0.30;66.50;;;;;;4977173;28;20077;-73
2022/04/04 07:09:44;;;;;;;17.38;10.23;;;-0.20;66.50;;;;;;4976923;28;20023;-73
2022/04/04 07:12:10;;;;;;;18.33;10.52;;;0.00;66.20;;;;;;4976774;28;20027;-73
2022/04/04 07:14:35;;;;;;;20.42;9.73;;;0.20;65.90;;;;;;4977089;28;20050;-77
2022/04/04 07:17:02;;;;;;;22.20;11.48;;;0.30;65.60;;;;;;4976725;28;20050;-74
2022/04/04 07:19:33;;;;;;;17.58;8.73;;;0.50;65.50;;;;;;4976736;28;20105;-73
2022/04/04 07:21:59;;;;;;;17.27;8.15;;;0.70;65.30;;;;;;4976829;28;20030;-73
2022/04/04 07:24:25;;;;;;;14.63;8.60;;;0.90;65.10;;;;;;4976737;28;20098;-73
2022/04/04 07:26:50;;;;;;;18.15;7.65;;;1.00;64.80;;;;;;4976547;28;20062;-74
2022/04/04 07:29:16;;;;;;;16.10;8.38;;;1.20;64.70;;;;;;4976984;28;20027;-74
2022/04/04 07:31:42;;;;;;;12.77;7.97;;;1.40;64.50;;;;;;4976767;28;20038;-84
2022/04/04 07:34:10;;;;;;;14.80;8.43;;;1.50;64.10;;;;;;4976659;28;20062;-83
2022/04/04 07:36:36;;;;;;;16.35;9.52;;;1.70;63.50;;;;;;4976478;28;20023;-83
2022/04/04 07:39:02;;;;;;;19.35;9.63;;;1.90;62.80;;;;;;4976002;28;20041;-83
2022/04/04 07:41:28;;;;;;;14.80;8.95;;;2.00;61.20;;;;;;4958781;28;20045;-80
2022/04/04 07:43:53;;;;;;;19.38;10.52;;;2.10;60.30;;;;;;4976444;28;20035;-84
2022/04/04 07:46:19;;;;;;;15.60;9.77;;;2.00;59.40;;;;;;4976414;28;20026;-82
2022/04/04 07:48:45;;;;;;;16.25;9.00;;;2.00;59.50;;;;;;4976519;28;20427;-83
2022/04/04 07:51:12;;;;;;;15.40;8.98;;;2.20;59.70;;;;;;4976592;28;20043;-78
2022/04/04 07:53:37;;;;;;;29.88;9.02;;;2.30;60.20;;;;;;4975842;28;20026;-77
2022/04/04 07:56:04;;;;;;;19.80;9.50;;;2.90;77.10;;;;;;4975948;28;20030;-76
2022/04/04 07:58:30;;;;;;;19.73;10.90;;;3.40;73.80;;;;;;4975854;28;20015;-76
2022/04/04 08:00:55;;;;;;;13.65;8.00;;;4.00;70.80;;;;;;4975798;28;20039;-77
2022/04/04 08:03:22;;;;;;;12.05;6.82;;;4.30;60.20;;;;;;4975949;28;20073;-79
2022/04/04 08:05:48;;;;;;;12.27;7.82;;;4.70;58.70;;;;;;4975851;28;20472;-80
2022/04/04 08:08:14;;;;;;;10.32;5.65;;;4.70;52.90;;;;;;4975714;28;20098;-77
2022/04/04 08:10:40;;;;;;;8.70;5.68;;;4.30;44.30;;;;;;4975715;28;20472;-75
2022/04/04 08:13:05;;;;;;;6.88;5.20;;;3.60;45.90;;;;;;4975339;28;20058;-75
2022/04/04 08:15:31;;;;;;;6.28;4.47;;;3.20;45.80;;;;;;4975118;28;20030;-75
2022/04/04 08:17:57;;;;;;;8.98;5.30;;;2.90;45.50;;;;;;4975377;28;20045;-77
2022/04/04 08:20:22;;;;;;;7.63;5.20;;;2.60;47.40;;;;;;4957853;28;20137;-76
2022/04/04 08:22:49;;;;;;;10.52;6.22;;;2.40;49.00;;;;;;4975430;28;20074;-77
2022/04/04 08:25:16;;;;;;;10.98;6.28;;;2.50;50.70;;;;;;4975336;28;20022;-77
2022/04/04 08:27:43;;;;;;;10.45;6.15;;;2.50;51.20;;;;;;4975556;28;20027;-78
2022/04/04 08:30:11;;;;;;;10.63;6.32;;;2.60;51.30;;;;;;4975418;28;20105;-77
2022/04/04 08:32:37;;;;;;;8.73;5.95;;;2.40;51.60;;;;;;4975554;28;20049;-74
2022/04/04 08:35:06;;;;;;;13.63;6.15;;;2.40;51.70;;;;;;4975617;28;20475;-75
2022/04/04 08:37:33;;;;;;;10.90;6.15;;;2.20;50.50;;;;;;4958213;28;20387;-75
2022/04/04 08:39:59;;;;;;;8.98;5.75;;;2.30;50.20;;;;;;4975006;28;20081;-74
2022/04/04 08:42:27;;;;;;;12.20;5.90;;;2.30;50.70;;;;;;4974986;28;20074;-75
2022/04/04 08:44:55;;;;;;;11.15;5.97;;;2.30;50.50;;;;;;4975034;28;20025;-77
2022/04/04 08:47:22;;;;;;;8.65;5.47;;;2.40;50.60;;;;;;4974802;28;20442;-76
2022/04/04 08:49:49;;;;;;;8.73;5.55;;;2.60;48.30;;;;;;4974810;28;20022;-76
2022/04/04 08:52:16;;;;;;;10.70;6.03;;;2.60;47.90;;;;;;4975219;28;20101;-75
2022/04/04 08:54:42;;;;;;;8.85;6.03;;;2.70;49.10;;;;;;4975157;28;20023;-75
2022/04/04 08:57:08;;;;;;;9.10;6.30;;;2.60;49.90;;;;;;4974313;28;20498;-75
2022/04/04 08:59:33;;;;;;;8.63;5.68;;;2.70;48.80;;;;;;4975140;28;20045;-75
2022/04/04 09:01:59;;;;;;;12.55;6.20;;;2.90;45.90;;;;;;4975201;28;20452;-75
2022/04/04 09:04:24;;;;;;;11.60;6.45;;;3.00;45.00;;;;;;4974460;28;20035;-75
2022/04/04 09:06:52;;;;;;;8.68;6.20;;;3.10;44.80;;;;;;4975076;28;20415;-78
2022/04/04 09:09:23;;;;;;;13.82;7.35;;;3.30;43.90;;;;;;4957579;28;20027;-76
2022/04/04 09:12:04;;;;;;;13.25;6.72;;;3.00;44.40;;;;;;4974928;28;20023;-75
2022/04/04 09:14:35;;;;;;;10.23;6.72;;;3.20;44.00;;;;;;4957542;28;20038;-76
2022/04/04 09:17:00;;;;;;;10.70;6.85;;;3.20;43.40;;;;;;4974491;28;20057;-72
2022/04/04 09:19:30;;;;;;;11.93;6.10;;;3.30;43.50;;;;;;4974764;28;20022;-75
2022/04/04 09:21:56;;;;;;;9.00;6.30;;;3.20;44.00;;;;;;4974490;28;20109;-76
2022/04/04 09:24:21;;;;;;;8.63;6.47;;;3.30;43.90;;;;;;4957199;28;20121;-72
2022/04/04 09:26:48;;;;;;;7.28;5.40;;;3.30;44.70;;;;;;4957149;28;20034;-78
2022/04/04 09:29:27;;;;;;;12.30;5.85;;;3.60;42.80;;;;;;4957269;28;20454;-76
2022/04/04 09:31:59;;;;;;;7.55;5.70;;;3.90;43.10;;;;;;4974613;28;20026;-78
2022/04/04 09:34:25;;;;;;;8.35;6.53;;;4.10;43.50;;;;;;4974476;28;20482;-78
2022/04/04 09:36:50;;;;;;;12.00;6.97;;;4.00;44.40;;;;;;4956903;28;20027;-77
2022/04/04 09:39:17;;;;;;;11.70;6.25;;;3.90;44.30;;;;;;4973985;28;20391;-78
2022/04/04 09:41:43;;;;;;;9.23;6.32;;;4.00;43.90;;;;;;4974153;28;20451;-73
2022/04/04 09:44:11;;;;;;;13.07;6.45;;;4.20;43.50;;;;;;4974155;28;20027;-77
2022/04/04 09:46:41;;;;;;;8.88;6.38;;;4.20;43.00;;;;;;4974108;28;20030;-74
2022/04/04 09:49:09;;;;;;;12.60;6.90;;;4.10;44.20;;;;;;4974125;28;20034;-75
2022/04/04 09:51:36;;;;;;;9.57;6.75;;;4.20;45.00;;;;;;4957214;28;20113;-77
2022/04/04 09:54:03;;;;;;;12.73;6.80;;;4.30;45.70;;;;;;4974146;28;20081;-76
2022/04/04 09:56:29;;;;;;;11.70;6.75;;;4.10;44.60;;;;;;4973845;28;20019;-77
2022/04/04 09:58:56;;;;;;;11.68;6.35;;;3.70;44.20;;;;;;4973998;28;20077;-79
2022/04/04 10:01:22;;;;;;;9.00;6.82;;;3.90;44.60;;;;;;4973545;28;20405;-77
2022/04/04 10:03:51;;;;;;;9.95;6.07;;;3.90;44.70;;;;;;4974047;28;20027;-76
2022/04/04 10:06:18;;;;;;;11.05;6.60;;;4.00;44.60;;;;;;4973502;28;20122;-73
2022/04/04 10:08:45;;;;;;;11.57;6.30;;;4.10;43.20;;;;;;4973529;28;20019;-75
2022/04/04 10:11:11;;;;;;;11.38;6.25;;;4.30;42.60;;;;;;4973391;28;20026;-76
2022/04/04 10:13:37;;;;;;;17.25;9.18;;;4.20;42.10;;;;;;4973312;28;20029;-76
2022/04/04 10:16:03;;;;;;;9.35;6.20;;;4.40;40.60;;;;;;4955983;28;20047;-75
2022/04/04 10:18:29;;;;;;;8.75;6.50;;;4.60;40.80;;;;;;4977329;28;20124;-74
2022/04/04 10:20:56;;;;;;;8.27;6.15;;;4.60;39.90;;;;;;4959889;28;20046;-74
2022/04/04 10:23:25;;;;;;;11.02;6.55;;;4.80;39.40;;;;;;4977505;28;20109;-74
2022/04/04 10:25:52;;;;;;;8.32;5.55;;;4.80;40.40;;;;;;4959927;28;20031;-76
2022/04/04 10:28:31;;;;;;;9.23;6.15;;;4.90;41.70;;;;;;4959965;28;20037;-78
2022/04/04 10:31:21;;;;;;;10.07;6.38;;;5.10;41.20;;;;;;4977540;28;20030;-78
2022/04/04 10:33:49;;;;;;;11.07;6.05;;;5.20;41.60;;;;;;4979024;28;20035;-76
2022/04/04 10:36:22;;;;;;;9.85;6.47;;;5.30;40.00;;;;;;4978418;28;20030;-75
2022/04/04 10:38:49;;;;;;;9.80;6.30;;;5.20;40.70;;;;;;4977509;28;20050;-77
2022/04/04 10:41:18;;;;;;;9.52;6.50;;;5.00;41.40;;;;;;4960320;28;20058;-78
2022/04/04 10:43:49;;;;;;;10.02;6.32;;;4.70;41.30;;;;;;4977349;28;20030;-78
2022/04/04 10:46:19;;;;;;;10.80;6.72;;;4.90;40.90;;;;;;4977225;28;20490;-76
2022/04/04 10:48:49;;;;;;;11.38;6.82;;;5.20;41.00;;;;;;4977251;28;20035;-77
2022/04/04 10:51:19;;;;;;;9.73;7.05;;;5.60;40.70;;;;;;4976442;28;20379;-77
2022/04/04 10:53:57;;;;;;;9.85;7.53;;;5.80;40.90;;;;;;4977432;28;20033;-75
2022/04/04 10:56:28;;;;;;;11.05;7.30;;;5.70;39.80;;;;;;4977825;28;20094;-78
2022/04/04 10:59:20;;;;;;;9.70;6.90;;;5.60;39.90;;;;;;4978976;28;20104;-73
2022/04/04 11:01:49;;;;;;;10.60;6.53;;;5.90;40.30;;;;;;4976790;28;20034;-74
2022/04/04 11:04:31;;;;;;;11.00;6.78;;;6.20;39.50;;;;;;4976896;28;20034;-74
2022/04/04 11:09:53;;;;;;;9.80;6.55;;;6.00;39.40;;;;;;4977652;28;20077;-75
2022/04/04 11:12:23;;;;;;;7.68;6.00;;;6.00;38.90;;;;;;4976915;28;20082;-74
2022/04/04 11:14:57;;;;;;;9.15;6.60;;;6.20;38.60;;;;;;4976851;28;20015;-72
2022/04/04 11:17:30;;;;;;;9.93;6.43;;;6.30;38.50;;;;;;4959378;28;20117;-73
2022/04/04 11:20:21;;;;;;;9.40;6.55;;;6.50;38.70;;;;;;4976780;28;20023;-73
2022/04/04 11:22:51;;;;;;;8.05;6.28;;;6.30;39.50;;;;;;4976573;28;20118;-73
2022/04/04 11:25:19;;;;;;;10.40;6.97;;;6.10;39.30;;;;;;4976335;28;20099;-72
2022/04/04 11:27:48;;;;;;;10.02;6.47;;;6.10;39.20;;;;;;4975806;28;20023;-73
2022/04/04 11:30:16;;;;;;;7.70;5.75;;;6.40;38.60;;;;;;4959113;28;20460;-73
2022/04/04 11:32:43;;;;;;;8.52;5.60;;;6.80;38.50;;;;;;4976564;28;20030;-73
2022/04/04 11:35:22;;;;;;;9.45;6.78;;;7.00;37.00;;;;;;4976433;28;20479;-73
2022/04/04 11:37:54;;;;;;;13.60;6.72;;;7.20;37.50;;;;;;4976348;28;20034;-72
2022/04/04 11:40:23;;;;;;;9.15;6.50;;;7.30;37.30;;;;;;4976115;28;20051;-72
2022/04/04 11:42:51;;;;;;;8.93;6.68;;;7.50;37.30;;;;;;4959036;28;20019;-73
2022/04/04 11:45:25;;;;;;;10.88;6.88;;;7.00;37.70;;;;;;4958723;28;20507;-73
2022/04/04 11:47:55;;;;;;;8.70;6.65;;;7.00;37.50;;;;;;4958930;28;20034;-73
2022/04/04 11:50:28;;;;;;;9.23;5.63;;;7.00;38.10;;;;;;4958926;28;20395;-74
2022/04/04 11:52:59;;;;;;;9.90;6.00;;;7.20;36.20;;;;;;4958896;28;20015;-73
2022/04/04 11:55:27;;;;;;;9.35;5.90;;;7.10;37.00;;;;;;4958638;28;20471;-74
2022/04/04 11:57:58;;;;;;;9.88;6.00;;;7.00;37.50;;;;;;4959102;28;20440;-74
2022/04/04 12:00:27;;;;;;;9.20;5.32;;;7.00;37.20;;;;;;4958127;28;20035;-74
2022/04/04 12:02:53;;;;;;;13.38;5.97;;;7.30;37.30;;;;;;4958451;28;20117;-74
2022/04/04 12:05:23;;;;;;;10.20;7.00;;;7.30;37.70;;;;;;4959011;28;20114;-74
2022/04/04 12:07:53;;;;;;;8.88;6.32;;;7.60;38.30;;;;;;4958600;28;20038;-74
2022/04/04 12:10:31;;;;;;;8.85;5.80;;;7.30;37.10;;;;;;4958291;28;20026;-73
2022/04/04 12:13:04;;;;;;;9.15;5.68;;;7.50;36.80;;;;;;4958155;28;20022;-72
2022/04/04 12:15:34;;;;;;;9.00;5.43;;;7.20;36.40;;;;;;4957997;28;20030;-74
2022/04/04 12:18:00;;;;;;;11.55;5.43;;;7.20;37.30;;;;;;4958045;28;20035;-76
2022/04/04 12:20:38;;;;;;;9.23;5.43;;;7.30;37.80;;;;;;4957991;28;20022;-73
2022/04/04 12:25:57;;;;;;;8.45;5.80;;;7.50;38.40;;;;;;4975312;28;20049;-75
2022/04/04 12:28:28;;;;;;;10.98;6.53;;;7.60;39.50;;;;;;4941714;28;20042;-74
2022/04/04 12:30:54;;;;;;;7.82;5.55;;;7.90;38.70;;;;;;4957347;28;20084;-76
2022/04/04 12:33:27;;;;;;;7.55;5.63;;;8.60;38.30;;;;;;4957535;28;20371;-73
2022/04/04 12:35:53;;;;;;;7.45;5.85;;;8.60;36.40;;;;;;4940914;28;20027;-73
2022/04/04 12:38:34;;;;;;;8.95;5.10;;;8.60;35.50;;;;;;4957232;28;20518;-73
2022/04/04 12:41:16;;;;;;;8.65;5.30;;;8.20;36.10;;;;;;4956669;28;20031;-76
2022/04/04 12:43:47;;;;;;;7.95;5.82;;;8.00;37.80;;;;;;4958056;28;20030;-79
2022/04/04 12:46:26;;;;;;;7.28;5.35;;;8.50;37.40;;;;;;4957948;28;20125;-74
2022/04/04 12:48:52;;;;;;;7.40;5.25;;;8.50;37.20;;;;;;4957456;28;20058;-73